Time;durP1;ratioP1;P1;durP2;ratioP2;P2;SDS_P1;SDS_P2;PMS_P1;PMS_P2;Temp;Humidity;BMP_temperature;BMP_pressure;BME280_temperature;BME280_humidity;BME280_pressure;Samples;Min_cycle;Max_cycle;Signal;HPM_P1;HPM_P2
2023/06/15 00:00:34;;;;;;;1.30;1.00;;;16.70;99.90;;;;;;5089104;28;20539;-79
2023/06/15 00:03:00;;;;;;;1.00;0.90;;;16.70;99.90;;;;;;5073900;28;20101;-79
2023/06/15 00:05:25;;;;;;;1.25;1.00;;;16.70;99.90;;;;;;5074846;28;20043;-79
2023/06/15 00:07:51;;;;;;;2.17;1.30;;;16.60;99.90;;;;;;5091605;28;20052;-79
2023/06/15 00:10:18;;;;;;;2.53;1.50;;;16.60;99.90;;;;;;5062142;28;20051;-79
2023/06/15 00:12:44;;;;;;;2.20;1.35;;;16.60;99.90;;;;;;5084933;28;20039;-79
2023/06/15 00:15:11;;;;;;;2.47;1.55;;;16.50;99.90;;;;;;5091902;28;20448;-79
2023/06/15 00:17:37;;;;;;;2.17;1.20;;;16.60;99.90;;;;;;5074376;28;20050;-79
2023/06/15 00:20:06;;;;;;;1.35;1.10;;;16.50;99.90;;;;;;5091804;28;20414;-79
2023/06/15 00:22:34;;;;;;;4.55;1.65;;;16.50;99.90;;;;;;5074919;28;20040;-79
2023/06/15 00:25:00;;;;;;;2.25;1.25;;;16.50;99.90;;;;;;5074734;28;20044;-79
2023/06/15 00:27:26;;;;;;;1.95;1.23;;;16.50;1.00;;;;;;5061820;28;20048;-79
2023/06/15 00:29:51;;;;;;;1.25;1.02;;;16.50;1.00;;;;;;5083482;28;20424;-79
2023/06/15 00:32:17;;;;;;;2.20;1.13;;;16.40;1.00;;;;;;5091357;28;20451;-79
2023/06/15 00:34:42;;;;;;;1.35;1.10;;;16.30;1.00;;;;;;5073171;28;20029;-79
2023/06/15 00:37:08;;;;;;;2.05;0.90;;;16.30;1.00;;;;;;5073317;28;20140;-79
2023/06/15 00:39:34;;;;;;;1.10;0.90;;;16.30;93.40;;;;;;5086124;28;20039;-79
2023/06/15 00:42:00;;;;;;;1.33;0.70;;;16.30;62.30;;;;;;5078745;28;20427;-79
2023/06/15 00:44:25;;;;;;;1.23;0.88;;;16.30;51.00;;;;;;5061027;28;20462;-79
2023/06/15 00:46:51;;;;;;;1.23;1.00;;;16.30;60.00;;;;;;5089869;28;20097;-79
2023/06/15 00:49:21;;;;;;;1.27;0.90;;;16.20;58.00;;;;;;5128915;27;20070;-79
2023/06/15 00:51:47;;;;;;;1.58;0.98;;;16.20;99.90;;;;;;5114737;27;20178;-79
2023/06/15 00:54:14;;;;;;;1.23;0.90;;;16.20;61.30;;;;;;5149294;27;20088;-79
2023/06/15 00:56:40;;;;;;;2.42;0.90;;;16.10;99.90;;;;;;5114366;27;20046;-79
2023/06/15 00:59:06;;;;;;;1.10;0.80;;;16.10;99.90;;;;;;5146260;27;20481;-79
2023/06/15 01:01:32;;;;;;;1.52;1.17;;;16.10;97.00;;;;;;5096400;27;20080;-79
2023/06/15 01:03:59;;;;;;;1.15;1.00;;;16.10;99.90;;;;;;5096361;27;20054;-79
2023/06/15 01:06:31;;;;;;;1.23;0.90;;;16.10;99.90;;;;;;5082150;27;20045;-79
2023/06/15 01:09:02;;;;;;;1.40;0.98;;;16.10;99.90;;;;;;5113559;27;20453;-79
2023/06/15 01:11:30;;;;;;;1.27;0.90;;;16.10;99.90;;;;;;5095403;27;20512;-79
2023/06/15 01:13:57;;;;;;;1.10;0.80;;;16.00;99.90;;;;;;5131227;27;20127;-79
2023/06/15 01:16:27;;;;;;;0.95;0.75;;;16.00;99.90;;;;;;5109187;27;20051;-78
2023/06/15 01:18:57;;;;;;;1.10;0.77;;;16.00;99.90;;;;;;5113027;27;20440;-79
2023/06/15 01:21:30;;;;;;;1.02;0.85;;;16.00;99.90;;;;;;5096123;27;20139;-79
2023/06/15 01:24:12;;;;;;;0.70;0.70;;;15.90;99.90;;;;;;5084455;27;20043;-79
2023/06/15 01:26:38;;;;;;;0.95;0.70;;;15.90;99.90;;;;;;5111987;27;20035;-78
2023/06/15 01:29:06;;;;;;;1.13;0.60;;;15.80;99.90;;;;;;5143135;27;20039;-79
2023/06/15 01:31:32;;;;;;;1.33;0.73;;;15.80;99.90;;;;;;5111121;27;20039;-79
2023/06/15 01:34:00;;;;;;;1.35;0.80;;;15.80;99.90;;;;;;5111737;27;20140;-78
2023/06/15 01:36:26;;;;;;;0.90;0.80;;;15.80;99.90;;;;;;5107935;27;20080;-79
2023/06/15 01:38:56;;;;;;;1.50;0.70;;;15.80;1.00;;;;;;5113940;27;20070;-79
2023/06/15 01:41:25;;;;;;;1.73;1.00;;;15.70;99.90;;;;;;5113769;27;20051;-78
2023/06/15 01:43:52;;;;;;;0.70;0.57;;;15.80;99.90;;;;;;5096893;27;20039;-78
2023/06/15 01:46:20;;;;;;;0.80;0.65;;;15.70;1.00;;;;;;5112593;28;20088;-79
2023/06/15 01:48:46;;;;;;;1.10;0.82;;;15.70;23.80;;;;;;5113234;27;20508;-79
2023/06/15 01:51:12;;;;;;;0.88;0.60;;;15.60;26.20;;;;;;5109777;28;20051;-79
2023/06/15 01:53:38;;;;;;;0.98;0.52;;;15.60;90.80;;;;;;5093159;28;20039;-79
2023/06/15 01:56:04;;;;;;;1.00;0.60;;;15.60;99.90;;;;;;5118890;27;20038;-79
2023/06/15 01:58:30;;;;;;;0.88;0.60;;;15.60;99.90;;;;;;5096576;27;20039;-79
2023/06/15 02:00:55;;;;;;;0.80;0.55;;;15.50;99.90;;;;;;5096237;27;20046;-79
2023/06/15 02:03:21;;;;;;;0.80;0.65;;;15.50;99.90;;;;;;5096799;27;20074;-79
2023/06/15 02:05:47;;;;;;;1.08;0.80;;;15.40;99.90;;;;;;5142575;27;20483;-79
2023/06/15 02:08:12;;;;;;;0.65;0.60;;;15.50;99.90;;;;;;5113797;27;20057;-79
2023/06/15 02:10:39;;;;;;;1.17;0.80;;;15.40;99.90;;;;;;5146814;27;20079;-79
2023/06/15 02:13:10;;;;;;;1.00;0.80;;;15.40;99.90;;;;;;5096224;27;20059;-79
2023/06/15 02:15:36;;;;;;;0.75;0.70;;;15.30;99.90;;;;;;5113174;27;20043;-79
2023/06/15 02:18:04;;;;;;;1.08;0.77;;;15.30;99.90;;;;;;5113318;27;20486;-79
2023/06/15 02:20:31;;;;;;;1.13;0.70;;;15.30;1.00;;;;;;5096381;27;20600;-79
2023/06/15 02:22:57;;;;;;;0.60;0.52;;;15.30;1.00;;;;;;5131497;27;20067;-79
2023/06/15 02:25:27;;;;;;;;;;;15.20;1.00;;;;;;5111564;27;20241;-79
2023/06/15 02:27:53;;;;;;;1.05;0.73;;;15.10;14.70;;;;;;5110679;27;19976;-79
2023/06/15 02:30:20;;;;;;;1.00;0.60;;;15.10;99.90;;;;;;5113344;27;20035;-79
2023/06/15 02:32:48;;;;;;;1.65;0.93;;;15.10;99.90;;;;;;5112668;27;20099;-79
2023/06/15 02:35:14;;;;;;;1.27;0.95;;;15.10;99.90;;;;;;5096514;27;20054;-79
2023/06/15 02:37:41;;;;;;;;;;;15.00;99.90;;;;;;5113051;27;20042;-79
2023/06/15 02:40:08;;;;;;;0.93;0.65;;;15.00;99.90;;;;;;5112590;27;20496;-79
2023/06/15 02:42:35;;;;;;;0.70;0.60;;;15.00;1.00;;;;;;5104940;28;20047;-79
2023/06/15 02:45:02;;;;;;;0.80;0.70;;;15.00;1.00;;;;;;5126489;27;20054;-79
2023/06/15 02:47:29;;;;;;;0.50;0.50;;;15.00;1.00;;;;;;5104806;28;20151;-79
2023/06/15 02:49:55;;;;;;;1.00;0.73;;;14.90;26.90;;;;;;5108986;28;20043;-79
2023/06/15 02:52:21;;;;;;;0.82;0.80;;;14.90;34.40;;;;;;5097210;28;20036;-78
2023/06/15 02:54:46;;;;;;;0.60;0.60;;;14.80;45.70;;;;;;5091156;28;20033;-79
2023/06/15 02:57:12;;;;;;;0.80;0.63;;;14.80;34.70;;;;;;5077814;28;20137;-79
2023/06/15 02:59:41;;;;;;;0.70;0.70;;;14.80;1.00;;;;;;5066053;28;20036;-78
2023/06/15 03:02:07;;;;;;;0.70;0.57;;;14.70;1.00;;;;;;5089055;28;20079;-78
2023/06/15 03:04:44;;;;;;;0.70;0.60;;;14.70;9.40;;;;;;5071788;28;20047;-78
2023/06/15 03:07:17;;;;;;;0.50;0.50;;;14.70;1.00;;;;;;5082900;28;20048;-78
2023/06/15 03:09:52;;;;;;;0.75;0.60;;;14.70;63.20;;;;;;5091485;28;20391;-78
2023/06/15 03:12:19;;;;;;;0.50;0.50;;;14.60;97.50;;;;;;5100173;28;20093;-79
2023/06/15 03:14:49;;;;;;;0.80;0.50;;;14.50;99.90;;;;;;5088773;28;20051;-78
2023/06/15 03:17:19;;;;;;;0.40;0.40;;;14.50;99.90;;;;;;5095413;28;20059;-78
2023/06/15 03:19:47;;;;;;;0.60;0.50;;;14.50;99.90;;;;;;5090247;28;20040;-78
2023/06/15 03:22:14;;;;;;;0.73;0.60;;;14.40;99.90;;;;;;5102731;28;20083;-78
2023/06/15 03:24:41;;;;;;;0.77;0.68;;;14.40;99.90;;;;;;5109026;28;20040;-78
2023/06/15 03:27:09;;;;;;;0.45;0.40;;;14.40;99.90;;;;;;5095841;28;20463;-78
2023/06/15 03:29:39;;;;;;;0.77;0.60;;;14.40;99.90;;;;;;5109156;28;20036;-78
2023/06/15 03:32:06;;;;;;;0.80;0.40;;;14.30;99.90;;;;;;5103140;28;20048;-78
2023/06/15 03:34:33;;;;;;;0.50;0.50;;;14.30;99.90;;;;;;5080477;28;20101;-78
2023/06/15 03:36:59;;;;;;;0.98;0.60;;;14.20;99.90;;;;;;5098281;28;20039;-79
2023/06/15 03:39:24;;;;;;;1.30;1.10;;;14.20;99.90;;;;;;5109000;28;20092;-78
2023/06/15 03:41:50;;;;;;;0.82;0.70;;;14.10;12.40;;;;;;5106943;28;20464;-78
2023/06/15 03:44:16;;;;;;;1.40;0.95;;;14.10;99.90;;;;;;5072017;28;20104;-78
2023/06/15 03:46:42;;;;;;;2.38;0.82;;;14.00;99.90;;;;;;5103059;28;20043;-77
2023/06/15 03:49:08;;;;;;;0.95;0.55;;;14.10;99.90;;;;;;5071438;28;20055;-77
2023/06/15 03:51:33;;;;;;;;;;;14.00;99.90;;;;;;5066028;28;20036;-78
2023/06/15 03:53:59;;;;;;;0.70;0.70;;;14.00;99.90;;;;;;5071337;28;20022;-78
2023/06/15 03:56:25;;;;;;;0.77;0.70;;;14.00;1.00;;;;;;5071740;28;20044;-77
2023/06/15 03:58:51;;;;;;;0.70;0.55;;;14.00;1.00;;;;;;5071202;28;20356;-77
2023/06/15 04:01:19;;;;;;;0.50;0.50;;;13.90;1.00;;;;;;5071821;28;20085;-77
2023/06/15 04:03:45;;;;;;;1.00;0.70;;;14.00;1.00;;;;;;5087758;28;20040;-77
2023/06/15 04:06:11;;;;;;;0.57;0.50;;;13.90;15.50;;;;;;5070967;28;20080;-78
2023/06/15 04:08:37;;;;;;;0.55;0.50;;;14.00;21.30;;;;;;5069002;28;20084;-78
2023/06/15 04:11:03;;;;;;;0.60;0.47;;;14.00;43.40;;;;;;5090564;28;20546;-78
2023/06/15 04:13:32;;;;;;;0.60;0.50;;;13.90;52.80;;;;;;5091955;28;20177;-77
2023/06/15 04:15:57;;;;;;;0.65;0.45;;;14.00;50.10;;;;;;5089556;28;20123;-78
2023/06/15 04:18:24;;;;;;;0.50;0.40;;;14.00;61.50;;;;;;5083578;28;20078;-77
2023/06/15 04:20:49;;;;;;;0.65;0.43;;;14.00;70.10;;;;;;5079487;28;20071;-77
2023/06/15 04:23:15;;;;;;;1.00;0.55;;;14.10;49.10;;;;;;5088417;28;20145;-78
2023/06/15 04:25:41;;;;;;;0.45;0.40;;;14.10;14.80;;;;;;5042713;28;20085;-78
2023/06/15 04:28:10;;;;;;;0.40;0.40;;;14.10;38.40;;;;;;5089815;28;20544;-78
2023/06/15 04:30:37;;;;;;;0.50;0.50;;;14.10;54.30;;;;;;5089768;28;20142;-78
2023/06/15 04:33:04;;;;;;;0.50;0.50;;;14.10;66.50;;;;;;5059402;28;20376;-78
2023/06/15 04:35:34;;;;;;;0.40;0.40;;;14.20;83.90;;;;;;5089630;28;20051;-78
2023/06/15 04:38:04;;;;;;;0.40;0.40;;;14.20;89.50;;;;;;5091300;28;20218;-78
2023/06/15 04:40:31;;;;;;;0.60;0.50;;;14.30;82.20;;;;;;5074587;28;20126;-78
2023/06/15 04:43:03;;;;;;;0.50;0.43;;;14.30;91.60;;;;;;5076645;28;20036;-78
2023/06/15 04:45:29;;;;;;;0.35;0.35;;;14.40;94.90;;;;;;5092185;28;20069;-78
2023/06/15 04:47:55;;;;;;;0.38;0.38;;;14.40;97.60;;;;;;5080865;28;20055;-79
2023/06/15 04:50:21;;;;;;;0.50;0.50;;;14.50;97.10;;;;;;5091144;28;20403;-77
2023/06/15 04:52:50;;;;;;;;;;;14.50;13.60;;;;;;5092792;28;20036;-78
2023/06/15 04:55:16;;;;;;;1.80;0.95;;;14.70;99.90;;;;;;5082299;28;20256;-78
2023/06/15 04:57:42;;;;;;;1.30;1.10;;;14.90;99.90;;;;;;5070768;28;20135;-78
2023/06/15 05:00:09;;;;;;;1.38;0.90;;;15.10;99.90;;;;;;5074954;28;20072;-78
2023/06/15 05:02:35;;;;;;;1.10;0.88;;;15.20;99.90;;;;;;5073442;28;20394;-78
2023/06/15 05:05:02;;;;;;;1.30;0.90;;;15.40;99.90;;;;;;5109117;28;20118;-78
2023/06/15 05:07:28;;;;;;;1.80;1.00;;;15.50;78.20;;;;;;5090949;28;20490;-78
2023/06/15 05:09:54;;;;;;;1.83;1.20;;;15.60;1.00;;;;;;5088903;28;20047;-78
2023/06/15 05:12:20;;;;;;;1.27;1.08;;;15.80;99.90;;;;;;5097151;28;20574;-78
2023/06/15 05:14:46;;;;;;;1.65;1.25;;;15.80;99.90;;;;;;5077353;28;20040;-78
2023/06/15 05:17:12;;;;;;;1.75;1.10;;;16.00;99.90;;;;;;5070723;28;20056;-80
2023/06/15 05:19:38;;;;;;;1.10;0.93;;;16.10;99.90;;;;;;5081948;28;20037;-80
2023/06/15 05:22:05;;;;;;;1.30;0.93;;;16.10;99.90;;;;;;5069685;28;20048;-80
2023/06/15 05:24:32;;;;;;;2.30;1.20;;;16.20;69.30;;;;;;5075851;28;20101;-80
2023/06/15 05:26:57;;;;;;;;;;;16.30;1.00;;;;;;5073848;28;20123;-79
2023/06/15 05:29:23;;;;;;;1.67;1.30;;;16.40;1.00;;;;;;5101443;28;19923;-80
2023/06/15 05:31:49;;;;;;;1.17;1.00;;;16.50;1.00;;;;;;5058233;28;20040;-79
2023/06/15 05:34:15;;;;;;;1.38;1.20;;;16.50;1.00;;;;;;5078979;28;20040;-78
2023/06/15 05:36:41;;;;;;;1.98;1.20;;;16.60;99.90;;;;;;5058536;28;20040;-78
2023/06/15 05:39:07;;;;;;;1.52;1.13;;;16.70;99.90;;;;;;5086448;28;20113;-79
2023/06/15 05:41:33;;;;;;;1.00;0.93;;;16.80;99.90;;;;;;5096433;28;20040;-78
2023/06/15 05:44:00;;;;;;;1.67;1.00;;;16.80;99.90;;;;;;5101407;28;20514;-78
2023/06/15 05:46:25;;;;;;;1.15;0.90;;;17.00;99.90;;;;;;5071295;28;20571;-79
2023/06/15 05:48:51;;;;;;;2.10;1.20;;;17.00;99.90;;;;;;5081661;28;20101;-77
2023/06/15 05:51:17;;;;;;;1.80;1.13;;;17.10;99.90;;;;;;5069839;28;20484;-78
2023/06/15 05:53:43;;;;;;;1.80;1.17;;;17.20;99.90;;;;;;5088196;28;20040;-78
2023/06/15 05:56:08;;;;;;;1.23;0.70;;;17.30;87.30;;;;;;5073168;28;20040;-78
2023/06/15 05:58:34;;;;;;;1.10;0.90;;;17.40;11.00;;;;;;5090922;28;20483;-77
2023/06/15 06:01:00;;;;;;;;;;;17.60;15.00;;;;;;5089541;28;20105;-78
2023/06/15 06:03:26;;;;;;;1.17;0.90;;;17.70;24.90;;;;;;5089212;28;19916;-78
2023/06/15 06:05:52;;;;;;;;;;;18.10;43.10;;;;;;5052101;28;20048;-78
2023/06/15 06:08:18;;;;;;;1.13;0.88;;;18.50;1.00;;;;;;5085987;28;20391;-78
2023/06/15 06:10:44;;;;;;;1.92;1.05;;;18.80;99.90;;;;;;5088681;28;20059;-78
2023/06/15 06:13:10;;;;;;;;;;;18.90;99.90;;;;;;5084279;28;20040;-77
2023/06/15 06:15:39;;;;;;;2.35;1.05;;;18.90;99.90;;;;;;5088062;28;19916;-79
2023/06/15 06:18:05;;;;;;;1.05;0.90;;;19.10;99.90;;;;;;5088692;28;20486;-79
2023/06/15 06:20:31;;;;;;;;;;;19.10;99.90;;;;;;5090171;28;20048;-79
2023/06/15 06:22:57;;;;;;;1.70;1.07;;;19.20;99.90;;;;;;5089123;28;19927;-80
2023/06/15 06:25:22;;;;;;;1.27;1.08;;;19.10;99.90;;;;;;5071574;28;20040;-80
2023/06/15 06:27:48;;;;;;;2.50;0.90;;;19.20;99.90;;;;;;5072152;28;20059;-80
2023/06/15 06:30:14;;;;;;;;;;;19.20;99.90;;;;;;5089773;28;20134;-79
2023/06/15 06:32:40;;;;;;;1.70;1.10;;;19.20;99.90;;;;;;5088748;28;19916;-79
2023/06/15 06:35:06;;;;;;;;;;;19.20;99.90;;;;;;5072931;28;20044;-79
2023/06/15 06:37:31;;;;;;;1.27;0.90;;;19.40;99.90;;;;;;5089326;28;20362;-79
2023/06/15 06:39:57;;;;;;;;;;;19.40;99.90;;;;;;5089512;28;20048;-79
2023/06/15 06:42:23;;;;;;;2.40;1.60;;;19.40;99.90;;;;;;5089602;28;19942;-79
2023/06/15 06:44:48;;;;;;;;;;;19.40;99.90;;;;;;5089267;28;20116;-79
2023/06/15 06:47:14;;;;;;;1.50;1.05;;;19.50;99.90;;;;;;5126955;27;19924;-79
2023/06/15 06:49:40;;;;;;;;;;;19.50;99.90;;;;;;5093061;28;20043;-79
2023/06/15 06:52:06;;;;;;;1.83;1.05;;;19.60;99.90;;;;;;5109506;28;19919;-77
2023/06/15 06:54:32;;;;;;;1.52;1.15;;;19.70;99.90;;;;;;5109643;28;20398;-77
2023/06/15 06:56:57;;;;;;;;;;;19.80;99.90;;;;;;5144280;27;20112;-77
2023/06/15 06:59:23;;;;;;;1.52;1.15;;;19.80;99.90;;;;;;5092105;28;19919;-77
2023/06/15 07:01:48;;;;;;;;;;;19.90;99.90;;;;;;5109565;28;20042;-78
2023/06/15 07:04:14;;;;;;;1.67;1.20;;;19.90;99.90;;;;;;5109558;28;19972;-77
2023/06/15 07:06:39;;;;;;;;;;;20.00;99.90;;;;;;5109752;28;20130;-77
2023/06/15 07:09:05;;;;;;;2.75;1.30;;;20.10;99.90;;;;;;5075394;28;19988;-77
2023/06/15 07:11:31;;;;;;;;;;;20.20;84.90;;;;;;5110222;28;20119;-77
2023/06/15 07:13:58;;;;;;;2.25;1.40;;;20.40;99.90;;;;;;5109529;28;20363;-77
2023/06/15 07:16:23;;;;;;;5.72;1.70;;;20.50;99.90;;;;;;5109590;28;20048;-77
2023/06/15 07:18:49;;;;;;;;;;;20.50;99.90;;;;;;5092868;28;20398;-77
2023/06/15 07:21:15;;;;;;;1.90;1.20;;;20.50;68.00;;;;;;5109144;28;19923;-77
2023/06/15 07:23:40;;;;;;;;;;;20.60;48.30;;;;;;5126532;28;20031;-77
2023/06/15 07:26:06;;;;;;;1.73;1.40;;;20.80;99.90;;;;;;5109104;28;20010;-77
2023/06/15 07:28:31;;;;;;;2.85;1.40;;;20.80;95.00;;;;;;5133127;27;20047;-77
2023/06/15 07:30:57;;;;;;;;;;;20.90;1.00;;;;;;5089269;28;20040;-77
2023/06/15 07:33:23;;;;;;;1.35;1.10;;;21.10;1.00;;;;;;5122945;28;19920;-77
2023/06/15 07:35:48;;;;;;;;;;;21.30;11.40;;;;;;5106158;28;20509;-78
2023/06/15 07:38:14;;;;;;;5.38;1.10;;;21.40;1.00;;;;;;5088564;28;19920;-77
2023/06/15 07:40:40;;;;;;;1.52;1.10;;;21.50;1.00;;;;;;5088597;28;20043;-78
2023/06/15 07:43:06;;;;;;;1.80;1.13;;;21.60;1.00;;;;;;5123240;27;20498;-78
2023/06/15 07:45:32;;;;;;;1.55;1.02;;;21.70;1.00;;;;;;5144545;27;20128;-78
2023/06/15 07:47:57;;;;;;;1.92;1.35;;;21.80;1.00;;;;;;5085522;28;20055;-78
2023/06/15 07:50:23;;;;;;;1.92;0.88;;;22.00;1.00;;;;;;5092647;28;20442;-78
2023/06/15 07:52:51;;;;;;;1.02;0.90;;;22.10;1.00;;;;;;5092409;28;20463;-77
2023/06/15 07:55:16;;;;;;;1.65;1.20;;;22.10;1.00;;;;;;5075627;28;20119;-77
2023/06/15 07:57:42;;;;;;;4.60;1.50;;;22.20;1.00;;;;;;5075300;28;20046;-77
2023/06/15 08:00:09;;;;;;;2.40;1.42;;;22.20;1.00;;;;;;5075416;28;20058;-77
2023/06/15 08:02:35;;;;;;;1.90;1.13;;;22.20;1.00;;;;;;5075475;28;20555;-77
2023/06/15 08:05:02;;;;;;;2.63;1.70;;;22.40;1.00;;;;;;5092170;28;20140;-77
2023/06/15 08:07:28;;;;;;;2.08;1.38;;;22.40;1.00;;;;;;5092049;28;20043;-77
2023/06/15 08:09:54;;;;;;;1.70;1.30;;;22.70;99.90;;;;;;5091875;28;20519;-77
2023/06/15 08:12:21;;;;;;;2.33;1.13;;;22.70;1.00;;;;;;5066732;28;20729;-77
2023/06/15 08:14:48;;;;;;;1.27;0.95;;;22.90;1.00;;;;;;5078294;28;20399;-77
2023/06/15 08:17:14;;;;;;;1.38;1.02;;;23.20;99.90;;;;;;5090445;28;20158;-78
2023/06/15 08:19:39;;;;;;;1.75;1.00;;;23.40;99.90;;;;;;5092341;28;20060;-78
2023/06/15 08:22:05;;;;;;;0.98;0.80;;;23.70;99.90;;;;;;5091049;28;20486;-78
2023/06/15 08:24:31;;;;;;;2.15;1.33;;;23.80;99.90;;;;;;5090516;28;20513;-78
2023/06/15 08:26:58;;;;;;;2.63;1.55;;;23.70;99.90;;;;;;5074814;28;20044;-78
2023/06/15 08:29:24;;;;;;;1.95;1.20;;;23.90;99.90;;;;;;5091656;28;20379;-77
2023/06/15 08:31:50;;;;;;;1.55;1.00;;;23.90;99.90;;;;;;5091850;28;20073;-77
2023/06/15 08:34:15;;;;;;;2.13;1.17;;;24.10;99.90;;;;;;5091830;28;20066;-77
2023/06/15 08:36:41;;;;;;;2.92;1.40;;;24.10;99.90;;;;;;5091723;28;20048;-77
2023/06/15 08:39:10;;;;;;;2.35;1.10;;;24.10;99.90;;;;;;5074745;28;20048;-77
2023/06/15 08:41:37;;;;;;;1.35;1.20;;;24.30;99.90;;;;;;5091681;28;20044;-77
2023/06/15 08:44:10;;;;;;;1.42;0.90;;;24.10;99.90;;;;;;5091459;28;20059;-77
2023/06/15 08:46:36;;;;;;;1.25;1.00;;;24.30;99.90;;;;;;5090781;28;20399;-77
2023/06/15 08:49:02;;;;;;;1.83;1.20;;;24.50;99.90;;;;;;5110074;28;20436;-77
2023/06/15 08:51:28;;;;;;;2.30;1.50;;;24.70;99.90;;;;;;5094747;28;20044;-77
2023/06/15 08:53:55;;;;;;;4.70;1.40;;;24.80;99.90;;;;;;5111534;28;20123;-77
2023/06/15 08:56:21;;;;;;;2.60;1.50;;;24.90;99.90;;;;;;5111632;28;20344;-77
2023/06/15 08:58:50;;;;;;;1.25;1.10;;;24.70;99.90;;;;;;5079606;28;20044;-77
2023/06/15 09:01:23;;;;;;;1.25;1.10;;;24.80;99.90;;;;;;5074506;28;20036;-77
2023/06/15 09:03:54;;;;;;;1.73;1.20;;;25.00;99.90;;;;;;5074049;28;20032;-78
2023/06/15 09:06:21;;;;;;;1.67;1.20;;;25.00;99.90;;;;;;5090918;28;20085;-78
2023/06/15 09:08:48;;;;;;;1.40;1.00;;;25.30;99.90;;;;;;5090860;28;20047;-77
2023/06/15 09:11:15;;;;;;;1.38;0.90;;;25.60;99.90;;;;;;5095009;28;20038;-77
2023/06/15 09:13:41;;;;;;;1.63;0.95;;;25.70;99.90;;;;;;5094253;28;20035;-77
2023/06/15 09:16:08;;;;;;;3.13;1.27;;;25.80;99.90;;;;;;5111396;28;20047;-77
2023/06/15 09:18:51;;;;;;;1.25;1.05;;;25.90;99.90;;;;;;5099309;28;20056;-77
2023/06/15 09:21:18;;;;;;;3.55;1.50;;;26.10;99.90;;;;;;5073779;28;20048;-77
2023/06/15 09:23:45;;;;;;;1.27;1.00;;;26.20;99.90;;;;;;5073530;28;20051;-77
2023/06/15 09:26:22;;;;;;;0.90;0.85;;;26.20;99.90;;;;;;5096675;28;20140;-77
2023/06/15 09:28:48;;;;;;;1.50;0.80;;;26.20;99.90;;;;;;5110757;28;20512;-77
2023/06/15 09:31:28;;;;;;;1.25;1.00;;;26.40;99.90;;;;;;5111068;28;20047;-77
2023/06/15 09:34:01;;;;;;;3.03;1.48;;;26.40;99.90;;;;;;5110796;28;20502;-79
2023/06/15 09:36:27;;;;;;;1.50;1.20;;;26.30;99.90;;;;;;5095877;28;20051;-78
2023/06/15 09:38:55;;;;;;;1.83;1.30;;;26.40;99.90;;;;;;5090624;28;20040;-78
2023/06/15 09:41:20;;;;;;;1.65;1.30;;;26.30;99.90;;;;;;5091864;28;20047;-78
2023/06/15 09:43:46;;;;;;;1.63;1.13;;;26.30;99.90;;;;;;5110587;28;20043;-78
2023/06/15 09:46:13;;;;;;;1.58;1.10;;;26.50;99.90;;;;;;5110511;28;20048;-78
2023/06/15 09:48:48;;;;;;;1.42;1.27;;;26.60;99.90;;;;;;5110303;28;20055;-78
2023/06/15 09:51:15;;;;;;;1.50;1.10;;;26.80;99.90;;;;;;5110527;28;20173;-78
2023/06/15 09:53:43;;;;;;;1.63;1.20;;;27.00;99.90;;;;;;5110340;28;20036;-78
2023/06/15 09:56:10;;;;;;;1.20;1.00;;;27.10;99.90;;;;;;5108398;28;20035;-78
2023/06/15 09:58:35;;;;;;;1.25;1.00;;;27.10;99.90;;;;;;5093428;28;20050;-78
2023/06/15 10:01:04;;;;;;;1.63;1.20;;;27.10;99.90;;;;;;5093371;28;20047;-78
2023/06/15 10:03:31;;;;;;;1.10;1.00;;;27.10;99.90;;;;;;5110085;28;20130;-78
2023/06/15 10:06:14;;;;;;;2.15;1.20;;;27.30;99.90;;;;;;5110564;28;20143;-79
2023/06/15 10:08:41;;;;;;;2.17;1.27;;;27.20;99.90;;;;;;5101688;28;20048;-77
2023/06/15 10:11:09;;;;;;;2.28;1.20;;;27.30;99.90;;;;;;5072797;28;20032;-78
2023/06/15 10:14:06;;;;;;;1.88;1.10;;;27.40;99.90;;;;;;5089613;28;20048;-78
2023/06/15 10:16:33;;;;;;;1.42;0.93;;;27.40;99.90;;;;;;5089903;28;20044;-78
2023/06/15 10:19:05;;;;;;;3.92;1.17;;;27.50;99.90;;;;;;5089496;28;20093;-78
2023/06/15 10:21:36;;;;;;;1.50;1.00;;;27.70;99.90;;;;;;5089623;28;20457;-78
2023/06/15 10:24:09;;;;;;;1.27;0.95;;;27.80;99.90;;;;;;5101310;28;20070;-78
2023/06/15 10:26:35;;;;;;;2.00;1.17;;;27.80;99.90;;;;;;5109828;28;20144;-78
2023/06/15 10:29:08;;;;;;;1.60;1.40;;;27.70;99.90;;;;;;5092791;28;20043;-78
2023/06/15 10:31:58;;;;;;;3.55;1.33;;;27.60;99.90;;;;;;5110158;28;20444;-78
2023/06/15 10:34:36;;;;;;;1.52;1.00;;;27.10;99.90;;;;;;5109760;28;20115;-78
2023/06/15 10:37:28;;;;;;;1.10;1.00;;;27.20;99.90;;;;;;5103170;28;20081;-78
2023/06/15 10:40:00;;;;;;;1.48;1.10;;;27.20;99.90;;;;;;5089454;28;20052;-78
2023/06/15 10:42:27;;;;;;;1.00;0.90;;;27.50;99.90;;;;;;5089712;28;20404;-78
2023/06/15 10:44:52;;;;;;;1.65;1.23;;;27.90;99.90;;;;;;5090123;28;20040;-78
2023/06/15 10:47:21;;;;;;;1.65;1.25;;;27.90;99.90;;;;;;5089014;28;20051;-78
2023/06/15 10:49:48;;;;;;;1.45;1.30;;;27.90;99.90;;;;;;5072278;28;20044;-78
2023/06/15 10:52:14;;;;;;;1.50;1.10;;;27.80;99.90;;;;;;5072410;28;20044;-78
2023/06/15 10:54:40;;;;;;;1.70;1.30;;;28.00;99.90;;;;;;5089136;28;20119;-77
2023/06/15 10:57:07;;;;;;;1.80;1.30;;;27.90;99.90;;;;;;5089250;28;20055;-77
2023/06/15 10:59:41;;;;;;;1.52;1.20;;;27.80;99.90;;;;;;5088886;28;20051;-78
2023/06/15 11:02:28;;;;;;;1.73;1.30;;;28.00;99.90;;;;;;5089078;28;20487;-78
2023/06/15 11:05:03;;;;;;;1.50;1.10;;;27.70;99.90;;;;;;5072179;28;20044;-78
2023/06/15 11:07:33;;;;;;;1.90;1.30;;;27.80;99.90;;;;;;5088716;28;20058;-78
2023/06/15 11:10:10;;;;;;;1.52;1.00;;;27.50;99.90;;;;;;5071840;28;20048;-78
2023/06/15 11:12:37;;;;;;;1.10;1.00;;;27.60;99.90;;;;;;5071955;28;20060;-78
2023/06/15 11:15:06;;;;;;;1.25;0.90;;;28.00;99.90;;;;;;5088591;28;20471;-78
2023/06/15 11:17:58;;;;;;;1.10;0.90;;;28.30;99.90;;;;;;5055662;28;20044;-78
2023/06/15 11:20:43;;;;;;;2.03;1.30;;;28.60;99.90;;;;;;5092115;28;20111;-78
2023/06/15 11:23:10;;;;;;;1.63;1.40;;;28.60;99.90;;;;;;5075814;28;20510;-78
2023/06/15 11:25:38;;;;;;;1.60;1.33;;;28.80;99.90;;;;;;5092951;28;20398;-78
2023/06/15 11:28:04;;;;;;;1.23;1.05;;;28.50;99.90;;;;;;5092781;28;20123;-77
2023/06/15 11:30:30;;;;;;;1.48;1.10;;;28.70;99.90;;;;;;5059414;28;20032;-77
2023/06/15 11:32:56;;;;;;;1.77;1.58;;;28.70;99.90;;;;;;5075978;28;20526;-77
2023/06/15 11:35:21;;;;;;;1.90;1.20;;;28.40;99.90;;;;;;5093089;28;20040;-77
2023/06/15 11:37:47;;;;;;;2.33;1.33;;;28.40;99.90;;;;;;5076054;28;20055;-77
2023/06/15 11:40:16;;;;;;;3.60;1.38;;;28.40;99.90;;;;;;5094023;28;20544;-77
2023/06/15 11:42:42;;;;;;;2.75;1.45;;;28.60;99.90;;;;;;5092570;28;20442;-77
2023/06/15 11:45:18;;;;;;;2.42;1.23;;;28.50;99.90;;;;;;5092067;28;20062;-78
2023/06/15 11:47:48;;;;;;;2.45;1.10;;;28.60;99.90;;;;;;5092405;28;20109;-78
2023/06/15 11:50:17;;;;;;;2.08;1.50;;;28.70;99.90;;;;;;5092281;28;20047;-78
2023/06/15 11:52:46;;;;;;;2.65;1.60;;;28.70;99.90;;;;;;5092487;28;20036;-78
2023/06/15 11:55:15;;;;;;;1.30;1.20;;;28.70;99.90;;;;;;5092139;28;20051;-76
2023/06/15 11:57:44;;;;;;;3.38;1.65;;;28.70;99.90;;;;;;5091796;28;20048;-77
2023/06/15 12:00:12;;;;;;;1.92;1.40;;;28.50;99.90;;;;;;5072060;28;20063;-79
2023/06/15 12:02:40;;;;;;;1.20;1.10;;;28.70;99.90;;;;;;5090604;28;20138;-80
2023/06/15 12:05:06;;;;;;;1.60;1.40;;;28.90;99.90;;;;;;5074036;28;20050;-80
2023/06/15 12:07:34;;;;;;;3.50;1.13;;;29.00;99.90;;;;;;5075284;28;20433;-80
2023/06/15 12:10:00;;;;;;;1.23;1.05;;;29.00;99.90;;;;;;5091981;28;20052;-80
2023/06/15 12:12:34;;;;;;;1.50;1.15;;;29.20;99.90;;;;;;5075173;28;20048;-80
2023/06/15 12:15:05;;;;;;;1.90;1.30;;;29.10;99.90;;;;;;5091797;28;20075;-80
2023/06/15 12:17:35;;;;;;;1.52;1.20;;;29.10;99.90;;;;;;5075233;28;20409;-80
2023/06/15 12:20:09;;;;;;;2.35;1.50;;;29.30;99.90;;;;;;5091795;28;20557;-79
2023/06/15 12:22:47;;;;;;;2.03;1.60;;;29.30;99.90;;;;;;5091809;28;20113;-79
2023/06/15 12:25:14;;;;;;;2.05;1.73;;;28.80;99.90;;;;;;5075304;28;20102;-80
2023/06/15 12:27:45;;;;;;;2.28;1.70;;;28.60;99.90;;;;;;5074444;28;20044;-80
2023/06/15 12:30:19;;;;;;;1.73;1.30;;;28.50;99.90;;;;;;5075712;28;20122;-80
2023/06/15 12:32:49;;;;;;;2.90;1.42;;;28.60;99.90;;;;;;5091175;28;20039;-80
2023/06/15 12:35:32;;;;;;;1.95;1.40;;;28.60;99.90;;;;;;5074876;28;20468;-80
2023/06/15 12:38:07;;;;;;;1.38;1.20;;;28.50;99.90;;;;;;5091937;28;20439;-80
2023/06/15 12:40:42;;;;;;;0.90;0.80;;;28.70;99.90;;;;;;5074796;28;20043;-80
2023/06/15 12:43:08;;;;;;;1.42;1.17;;;29.00;99.90;;;;;;5091214;28;20344;-78
2023/06/15 12:45:33;;;;;;;2.63;1.30;;;29.30;99.90;;;;;;5074538;28;20058;-79
2023/06/15 12:48:00;;;;;;;0.98;0.90;;;29.40;99.90;;;;;;5067644;28;20082;-79
2023/06/15 12:50:29;;;;;;;2.35;1.38;;;29.60;99.90;;;;;;5095046;28;20123;-79
2023/06/15 12:52:57;;;;;;;1.33;1.10;;;29.60;99.90;;;;;;5094767;28;20036;-79
2023/06/15 12:55:23;;;;;;;1.73;1.08;;;29.70;99.90;;;;;;5094922;28;20050;-79